sensor_id;sensor_type;location;lat;lon;timestamp;pressure;altitude;pressure_sealevel;temperature;humidity
76594;BME280;65482;50.240;14.302;2023-03-01T00:01:39;100806.41;;;-4.10;68.14
76594;BME280;65482;50.240;14.302;2023-03-01T00:04:25;100808.28;;;-4.18;68.28
76594;BME280;65482;50.240;14.302;2023-03-01T00:07:41;100805.97;;;-4.29;68.56
76594;BME280;65482;50.240;14.302;2023-03-01T00:10:44;100809.50;;;-4.33;68.28
76594;BME280;65482;50.240;14.302;2023-03-01T00:13:24;100806.13;;;-4.36;68.81
76594;BME280;65482;50.240;14.302;2023-03-01T00:16:21;100814.81;;;-4.41;69.12
76594;BME280;65482;50.240;14.302;2023-03-01T00:19:24;100818.16;;;-4.35;68.99
76594;BME280;65482;50.240;14.302;2023-03-01T00:22:27;100810.63;;;-4.45;68.76
76594;BME280;65482;50.240;14.302;2023-03-01T00:25:33;100808.00;;;-4.42;69.12
76594;BME280;65482;50.240;14.302;2023-03-01T00:28:44;100807.09;;;-4.41;68.89
76594;BME280;65482;50.240;14.302;2023-03-01T00:31:30;100795.94;;;-4.41;69.11
76594;BME280;65482;50.240;14.302;2023-03-01T00:34:23;100797.63;;;-4.40;69.02
76594;BME280;65482;50.240;14.302;2023-03-01T00:40:41;100796.03;;;-4.46;68.80
76594;BME280;65482;50.240;14.302;2023-03-01T00:43:29;100799.56;;;-4.50;68.76
76594;BME280;65482;50.240;14.302;2023-03-01T00:46:14;100794.53;;;-4.56;68.85
76594;BME280;65482;50.240;14.302;2023-03-01T00:49:03;100787.75;;;-4.58;69.14
76594;BME280;65482;50.240;14.302;2023-03-01T00:52:03;100788.56;;;-4.58;68.96
76594;BME280;65482;50.240;14.302;2023-03-01T00:54:45;100785.19;;;-4.60;68.78
76594;BME280;65482;50.240;14.302;2023-03-01T00:57:34;100783.56;;;-4.64;69.11
76594;BME280;65482;50.240;14.302;2023-03-01T01:00:20;100781.00;;;-4.66;68.91
76594;BME280;65482;50.240;14.302;2023-03-01T01:03:08;100779.19;;;-4.61;68.84
76594;BME280;65482;50.240;14.302;2023-03-01T01:06:01;100784.50;;;-4.68;69.04
76594;BME280;65482;50.240;14.302;2023-03-01T01:08:55;100776.91;;;-4.74;68.98
76594;BME280;65482;50.240;14.302;2023-03-01T01:11:51;100775.31;;;-4.80;69.24
76594;BME280;65482;50.240;14.302;2023-03-01T01:14:42;100780.53;;;-4.83;69.08
76594;BME280;65482;50.240;14.302;2023-03-01T01:17:36;100782.25;;;-4.84;69.45
76594;BME280;65482;50.240;14.302;2023-03-01T01:20:18;100788.34;;;-4.88;69.23
76594;BME280;65482;50.240;14.302;2023-03-01T01:23:17;100780.69;;;-4.91;69.56
76594;BME280;65482;50.240;14.302;2023-03-01T01:29:30;100773.06;;;-4.95;69.66
76594;BME280;65482;50.240;14.302;2023-03-01T01:35:40;100767.16;;;-4.99;69.51
76594;BME280;65482;50.240;14.302;2023-03-01T01:38:29;100760.31;;;-5.02;69.61
76594;BME280;65482;50.240;14.302;2023-03-01T01:41:00;100767.16;;;-5.01;69.89
76594;BME280;65482;50.240;14.302;2023-03-01T01:50:01;100762.13;;;-5.05;69.63
76594;BME280;65482;50.240;14.302;2023-03-01T01:52:59;100757.06;;;-5.10;69.54
76594;BME280;65482;50.240;14.302;2023-03-01T01:55:52;100752.81;;;-5.12;69.73
76594;BME280;65482;50.240;14.302;2023-03-01T01:59:05;100753.69;;;-5.13;69.88
76594;BME280;65482;50.240;14.302;2023-03-01T02:02:19;100744.28;;;-5.14;69.83
76594;BME280;65482;50.240;14.302;2023-03-01T02:08:25;100744.16;;;-5.08;69.72
76594;BME280;65482;50.240;14.302;2023-03-01T02:11:05;100740.91;;;-5.16;69.67
76594;BME280;65482;50.240;14.302;2023-03-01T02:14:05;100739.97;;;-5.12;69.61
76594;BME280;65482;50.240;14.302;2023-03-01T02:17:03;100739.25;;;-5.21;69.90
76594;BME280;65482;50.240;14.302;2023-03-01T02:20:06;100735.03;;;-5.23;69.90
76594;BME280;65482;50.240;14.302;2023-03-01T02:22:47;100727.38;;;-5.26;69.76
76594;BME280;65482;50.240;14.302;2023-03-01T02:28:59;100738.63;;;-5.33;69.77
76594;BME280;65482;50.240;14.302;2023-03-01T02:32:05;100730.00;;;-5.29;69.62
76594;BME280;65482;50.240;14.302;2023-03-01T02:34:53;100729.16;;;-5.31;69.57
76594;BME280;65482;50.240;14.302;2023-03-01T02:37:49;100729.06;;;-5.25;69.43
76594;BME280;65482;50.240;14.302;2023-03-01T02:40:47;100737.66;;;-5.26;69.43
76594;BME280;65482;50.240;14.302;2023-03-01T02:46:48;100729.16;;;-5.31;69.38
76594;BME280;65482;50.240;14.302;2023-03-01T02:49:42;100732.66;;;-5.34;69.46
76594;BME280;65482;50.240;14.302;2023-03-01T02:52:45;100718.13;;;-5.35;69.48
76594;BME280;65482;50.240;14.302;2023-03-01T02:55:39;100720.75;;;-5.40;69.55
76594;BME280;65482;50.240;14.302;2023-03-01T02:58:23;100719.94;;;-5.42;69.59
76594;BME280;65482;50.240;14.302;2023-03-01T03:01:17;100726.88;;;-5.45;69.62
76594;BME280;65482;50.240;14.302;2023-03-01T03:03:53;100733.75;;;-5.46;69.89
76594;BME280;65482;50.240;14.302;2023-03-01T03:09:28;100727.84;;;-5.51;69.95
76594;BME280;65482;50.240;14.302;2023-03-01T03:12:22;100728.69;;;-5.50;69.62
76594;BME280;65482;50.240;14.302;2023-03-01T03:15:13;100726.13;;;-5.50;69.74
76594;BME280;65482;50.240;14.302;2023-03-01T03:17:57;100727.91;;;-5.54;69.57
76594;BME280;65482;50.240;14.302;2023-03-01T03:20:26;100719.38;;;-5.56;69.79
76594;BME280;65482;50.240;14.302;2023-03-01T03:22:54;100725.41;;;-5.57;69.61
76594;BME280;65482;50.240;14.302;2023-03-01T03:25:21;100721.16;;;-5.60;70.06
76594;BME280;65482;50.240;14.302;2023-03-01T03:27:49;100723.78;;;-5.63;69.91
76594;BME280;65482;50.240;14.302;2023-03-01T03:30:17;100721.22;;;-5.63;70.13
76594;BME280;65482;50.240;14.302;2023-03-01T03:32:45;100712.63;;;-5.63;69.96
76594;BME280;65482;50.240;14.302;2023-03-01T03:35:22;100704.09;;;-5.64;69.87
76594;BME280;65482;50.240;14.302;2023-03-01T03:37:50;100704.97;;;-5.65;69.75
76594;BME280;65482;50.240;14.302;2023-03-01T03:40:31;100705.00;;;-5.66;69.95
76594;BME280;65482;50.240;14.302;2023-03-01T03:42:57;100699.03;;;-5.68;70.07
76594;BME280;65482;50.240;14.302;2023-03-01T03:45:23;100694.69;;;-5.65;70.17
76594;BME280;65482;50.240;14.302;2023-03-01T03:47:49;100692.97;;;-5.66;70.17
76594;BME280;65482;50.240;14.302;2023-03-01T03:50:17;100686.09;;;-5.64;69.98
76594;BME280;65482;50.240;14.302;2023-03-01T03:52:43;100680.13;;;-5.66;70.35
76594;BME280;65482;50.240;14.302;2023-03-01T03:55:11;100675.06;;;-5.69;69.92
76594;BME280;65482;50.240;14.302;2023-03-01T03:57:37;100677.63;;;-5.69;69.91
76594;BME280;65482;50.240;14.302;2023-03-01T04:00:05;100675.09;;;-5.70;69.97
76594;BME280;65482;50.240;14.302;2023-03-01T04:02:31;100679.41;;;-5.72;69.66
76594;BME280;65482;50.240;14.302;2023-03-01T04:04:57;100676.88;;;-5.74;69.87
76594;BME280;65482;50.240;14.302;2023-03-01T04:07:23;100674.31;;;-5.75;69.62
76594;BME280;65482;50.240;14.302;2023-03-01T04:09:54;100677.78;;;-5.78;69.74
76594;BME280;65482;50.240;14.302;2023-03-01T04:12:20;100681.22;;;-5.77;69.71
76594;BME280;65482;50.240;14.302;2023-03-01T04:14:58;100686.41;;;-5.81;69.90
76594;BME280;65482;50.240;14.302;2023-03-01T04:17:37;100682.97;;;-5.81;69.83
76594;BME280;65482;50.240;14.302;2023-03-01T04:20:49;100689.84;;;-5.82;69.93
76594;BME280;65482;50.240;14.302;2023-03-01T04:23:47;100699.34;;;-5.85;69.70
76594;BME280;65482;50.240;14.302;2023-03-01T04:26:26;100696.81;;;-5.87;69.82
76594;BME280;65482;50.240;14.302;2023-03-01T04:29:05;100692.53;;;-5.88;69.93
76594;BME280;65482;50.240;14.302;2023-03-01T04:32:06;100693.38;;;-5.87;69.65
76594;BME280;65482;50.240;14.302;2023-03-01T04:34:53;100693.38;;;-5.87;69.78
76594;BME280;65482;50.240;14.302;2023-03-01T04:37:30;100699.41;;;-5.88;69.62
76594;BME280;65482;50.240;14.302;2023-03-01T04:40:13;100690.03;;;-5.91;69.76
76594;BME280;65482;50.240;14.302;2023-03-01T04:43:00;100697.75;;;-5.92;69.77
76594;BME280;65482;50.240;14.302;2023-03-01T04:49:08;100703.75;;;-5.93;69.71
76594;BME280;65482;50.240;14.302;2023-03-01T04:52:01;100713.16;;;-5.91;69.50
76594;BME280;65482;50.240;14.302;2023-03-01T04:54:50;100704.59;;;-5.93;69.61
76594;BME280;65482;50.240;14.302;2023-03-01T04:57:19;100696.91;;;-5.93;69.53
76594;BME280;65482;50.240;14.302;2023-03-01T05:00:10;100696.91;;;-5.93;69.41
76594;BME280;65482;50.240;14.302;2023-03-01T05:03:07;100696.16;;;-5.96;69.47
76594;BME280;65482;50.240;14.302;2023-03-01T05:05:43;100691.91;;;-5.99;69.42
76594;BME280;65482;50.240;14.302;2023-03-01T05:08:28;100697.91;;;-5.98;69.54
76594;BME280;65482;50.240;14.302;2023-03-01T05:11:21;100701.34;;;-6.00;69.51
76594;BME280;65482;50.240;14.302;2023-03-01T05:14:08;100690.25;;;-6.02;69.88
76594;BME280;65482;50.240;14.302;2023-03-01T05:17:04;100690.31;;;-6.05;69.80
76594;BME280;65482;50.240;14.302;2023-03-01T05:19:38;100692.97;;;-6.11;69.97
76594;BME280;65482;50.240;14.302;2023-03-01T05:22:30;100693.03;;;-6.14;70.14
76594;BME280;65482;50.240;14.302;2023-03-01T05:25:07;100695.59;;;-6.14;70.23
76594;BME280;65482;50.240;14.302;2023-03-01T05:28:37;100693.81;;;-6.10;70.17
76594;BME280;65482;50.240;14.302;2023-03-01T05:31:30;100694.69;;;-6.13;69.93
76594;BME280;65482;50.240;14.302;2023-03-01T05:34:04;100683.56;;;-6.12;69.99
76594;BME280;65482;50.240;14.302;2023-03-01T05:36:58;100676.78;;;-6.14;70.14
76594;BME280;65482;50.240;14.302;2023-03-01T05:39:35;100687.00;;;-6.13;69.86
76594;BME280;65482;50.240;14.302;2023-03-01T05:42:32;100676.72;;;-6.11;70.07
76594;BME280;65482;50.240;14.302;2023-03-01T05:45:35;100676.69;;;-6.10;70.03
76594;BME280;65482;50.240;14.302;2023-03-01T05:51:26;100679.28;;;-6.13;69.56
76594;BME280;65482;50.240;14.302;2023-03-01T05:54:12;100685.25;;;-6.11;69.93
76594;BME280;65482;50.240;14.302;2023-03-01T06:00:04;100680.91;;;-6.06;69.66
76594;BME280;65482;50.240;14.302;2023-03-01T06:02:57;100697.09;;;-6.02;69.66
76594;BME280;65482;50.240;14.302;2023-03-01T06:05:49;100696.88;;;-5.91;69.46
76594;BME280;65482;50.240;14.302;2023-03-01T06:08:52;100693.53;;;-5.95;69.65
76594;BME280;65482;50.240;14.302;2023-03-01T06:11:59;100699.50;;;-5.94;69.50
76594;BME280;65482;50.240;14.302;2023-03-01T06:19:20;100700.94;;;-5.80;69.19
76594;BME280;65482;50.240;14.302;2023-03-01T06:21:56;100694.00;;;-5.74;68.83
76594;BME280;65482;50.240;14.302;2023-03-01T06:24:54;100696.47;;;-5.68;68.62
76594;BME280;65482;50.240;14.302;2023-03-01T06:57:53;100701.19;;;-0.71;58.24
76594;BME280;65482;50.240;14.302;2023-03-01T07:14:04;100714.47;;;5.51;40.00
76594;BME280;65482;50.240;14.302;2023-03-01T07:21:14;100711.66;;;5.13;40.05
76594;BME280;65482;50.240;14.302;2023-03-01T07:32:43;100710.91;;;5.25;41.15
76594;BME280;65482;50.240;14.302;2023-03-01T07:35:21;100708.28;;;5.52;41.21
76594;BME280;65482;50.240;14.302;2023-03-01T07:41:40;100704.63;;;6.22;39.95
76594;BME280;65482;50.240;14.302;2023-03-01T07:49:02;100699.19;;;6.51;39.88
76594;BME280;65482;50.240;14.302;2023-03-01T07:56:15;100692.56;;;6.32;40.75
76594;BME280;65482;50.240;14.302;2023-03-01T07:58:49;100688.78;;;6.24;40.65
76594;BME280;65482;50.240;14.302;2023-03-01T08:02:00;100689.88;;;5.54;41.90
76594;BME280;65482;50.240;14.302;2023-03-01T08:04:26;100690.97;;;4.95;43.35
76594;BME280;65482;50.240;14.302;2023-03-01T08:06:53;100686.91;;;5.04;44.01
76594;BME280;65482;50.240;14.302;2023-03-01T08:09:19;100689.66;;;4.45;44.39
76594;BME280;65482;50.240;14.302;2023-03-01T08:11:52;100688.16;;;3.82;46.39
76594;BME280;65482;50.240;14.302;2023-03-01T08:14:27;100692.22;;;4.02;46.05
76594;BME280;65482;50.240;14.302;2023-03-01T08:16:53;100684.81;;;3.94;46.48
76594;BME280;65482;50.240;14.302;2023-03-01T08:19:30;100693.06;;;4.17;45.60
76594;BME280;65482;50.240;14.302;2023-03-01T08:26:48;100676.31;;;3.91;45.41
76594;BME280;65482;50.240;14.302;2023-03-01T08:42:26;100663.41;;;3.73;46.83
76594;BME280;65482;50.240;14.302;2023-03-01T08:44:52;100670.84;;;4.10;46.15
76594;BME280;65482;50.240;14.302;2023-03-01T08:47:18;100674.16;;;4.28;45.91
76594;BME280;65482;50.240;14.302;2023-03-01T08:49:44;100671.09;;;4.64;45.36
76594;BME280;65482;50.240;14.302;2023-03-01T08:52:09;100672.66;;;4.81;45.83
76594;BME280;65482;50.240;14.302;2023-03-01T08:54:35;100662.19;;;4.95;44.97
76594;BME280;65482;50.240;14.302;2023-03-01T08:57:03;100670.28;;;5.05;44.92
76594;BME280;65482;50.240;14.302;2023-03-01T08:59:29;100662.34;;;5.07;45.20
76594;BME280;65482;50.240;14.302;2023-03-01T09:01:57;100655.81;;;5.14;44.53
76594;BME280;65482;50.240;14.302;2023-03-01T09:20:47;100641.97;;;4.70;45.51
76594;BME280;65482;50.240;14.302;2023-03-01T09:32:35;100628.06;;;4.27;45.55
76594;BME280;65482;50.240;14.302;2023-03-01T09:35:10;100620.31;;;4.25;45.14
76594;BME280;65482;50.240;14.302;2023-03-01T09:46:15;100624.91;;;5.06;44.24
76594;BME280;65482;50.240;14.302;2023-03-01T09:49:30;100619.84;;;5.17;43.12
76594;BME280;65482;50.240;14.302;2023-03-01T09:52:07;100611.13;;;5.17;43.85
76594;BME280;65482;50.240;14.302;2023-03-01T09:54:37;100609.63;;;5.27;43.21
76594;BME280;65482;50.240;14.302;2023-03-01T10:40:16;100560.09;;;4.97;43.98
76594;BME280;65482;50.240;14.302;2023-03-01T10:42:47;100562.44;;;5.02;43.93
76594;BME280;65482;50.240;14.302;2023-03-01T10:47:44;100570.69;;;4.81;43.82
76594;BME280;65482;50.240;14.302;2023-03-01T10:50:22;100569.25;;;4.63;44.72
76594;BME280;65482;50.240;14.302;2023-03-01T10:53:39;100565.44;;;4.68;44.20
76594;BME280;65482;50.240;14.302;2023-03-01T10:56:11;100553.00;;;4.57;44.43
76594;BME280;65482;50.240;14.302;2023-03-01T10:58:41;100551.19;;;4.60;44.91
76594;BME280;65482;50.240;14.302;2023-03-01T11:03:41;100545.47;;;4.53;44.67
76594;BME280;65482;50.240;14.302;2023-03-01T11:13:35;100529.81;;;4.53;44.98
76594;BME280;65482;50.240;14.302;2023-03-01T11:16:07;100536.28;;;4.74;44.74
76594;BME280;65482;50.240;14.302;2023-03-01T11:18:35;100524.09;;;4.61;44.74
76594;BME280;65482;50.240;14.302;2023-03-01T11:21:01;100526.34;;;4.52;44.53
76594;BME280;65482;50.240;14.302;2023-03-01T11:23:29;100519.16;;;4.56;44.50
76594;BME280;65482;50.240;14.302;2023-03-01T11:25:59;100514.06;;;4.67;44.86
76594;BME280;65482;50.240;14.302;2023-03-01T11:28:28;100511.63;;;4.78;44.54
76594;BME280;65482;50.240;14.302;2023-03-01T11:31:04;100503.81;;;4.91;44.09
76594;BME280;65482;50.240;14.302;2023-03-01T11:33:58;100511.47;;;4.67;44.77
76594;BME280;65482;50.240;14.302;2023-03-01T11:36:51;100504.22;;;4.85;43.78
76594;BME280;65482;50.240;14.302;2023-03-01T11:42:00;100494.31;;;5.03;44.13
76594;BME280;65482;50.240;14.302;2023-03-01T11:44:30;100490.06;;;5.15;43.65
76594;BME280;65482;50.240;14.302;2023-03-01T11:50:00;100487.78;;;5.23;43.15
76594;BME280;65482;50.240;14.302;2023-03-01T11:52:40;100485.81;;;5.27;42.89
76594;BME280;65482;50.240;14.302;2023-03-01T12:57:02;100422.91;;;5.41;42.91
76594;BME280;65482;50.240;14.302;2023-03-01T13:00:02;100409.22;;;5.50;42.83
76594;BME280;65482;50.240;14.302;2023-03-01T13:02:45;100408.88;;;5.68;43.18
76594;BME280;65482;50.240;14.302;2023-03-01T13:05:30;100403.59;;;5.81;43.02
76594;BME280;65482;50.240;14.302;2023-03-01T13:13:27;100398.16;;;5.84;42.40
76594;BME280;65482;50.240;14.302;2023-03-01T13:27:41;100392.28;;;6.06;42.52
76594;BME280;65482;50.240;14.302;2023-03-01T13:43:48;100377.41;;;5.93;41.74
76594;BME280;65482;50.240;14.302;2023-03-01T13:46:44;100378.34;;;6.05;41.51
76594;BME280;65482;50.240;14.302;2023-03-01T13:56:24;100357.38;;;5.92;42.19
76594;BME280;65482;50.240;14.302;2023-03-01T14:09:31;100366.41;;;6.01;41.69
76594;BME280;65482;50.240;14.302;2023-03-01T14:12:13;100362.91;;;6.13;41.21
76594;BME280;65482;50.240;14.302;2023-03-01T14:15:42;100360.75;;;6.07;41.42
76594;BME280;65482;50.240;14.302;2023-03-01T14:18:54;100361.78;;;6.05;41.67
76594;BME280;65482;50.240;14.302;2023-03-01T14:21:42;100358.13;;;6.07;41.89
76594;BME280;65482;50.240;14.302;2023-03-01T14:24:23;100351.91;;;6.08;40.55
76594;BME280;65482;50.240;14.302;2023-03-01T14:27:02;100351.81;;;6.10;40.55
76594;BME280;65482;50.240;14.302;2023-03-01T14:29:37;100352.88;;;6.07;41.49
76594;BME280;65482;50.240;14.302;2023-03-01T14:32:21;100354.94;;;6.15;39.71
76594;BME280;65482;50.240;14.302;2023-03-01T14:34:49;100349.81;;;6.13;40.45
76594;BME280;65482;50.240;14.302;2023-03-01T14:39:47;100342.22;;;6.22;39.99
76594;BME280;65482;50.240;14.302;2023-03-01T14:42:14;100329.03;;;6.23;39.68
76594;BME280;65482;50.240;14.302;2023-03-01T14:44:46;100337.44;;;6.15;39.60
76594;BME280;65482;50.240;14.302;2023-03-01T14:47:32;100337.88;;;6.09;40.20
76594;BME280;65482;50.240;14.302;2023-03-01T14:50:40;100330.34;;;6.05;40.25
76594;BME280;65482;50.240;14.302;2023-03-01T14:53:35;100322.91;;;6.11;40.51
76594;BME280;65482;50.240;14.302;2023-03-01T15:00:14;100316.13;;;6.20;40.65
76594;BME280;65482;50.240;14.302;2023-03-01T15:03:42;100313.63;;;6.18;40.19
76594;BME280;65482;50.240;14.302;2023-03-01T15:06:42;100313.13;;;6.13;41.08
76594;BME280;65482;50.240;14.302;2023-03-01T15:09:58;100322.38;;;6.06;41.36
76594;BME280;65482;50.240;14.302;2023-03-01T15:20:41;100332.88;;;5.93;41.57
76594;BME280;65482;50.240;14.302;2023-03-01T15:23:31;100334.16;;;5.88;42.35
76594;BME280;65482;50.240;14.302;2023-03-01T15:26:00;100332.47;;;5.87;42.08
76594;BME280;65482;50.240;14.302;2023-03-01T15:29:26;100335.38;;;6.08;41.31
76594;BME280;65482;50.240;14.302;2023-03-01T15:32:45;100323.25;;;5.94;42.09
76594;BME280;65482;50.240;14.302;2023-03-01T15:35:41;100329.25;;;5.83;41.74
76594;BME280;65482;50.240;14.302;2023-03-01T15:38:26;100329.84;;;5.87;42.10
76594;BME280;65482;50.240;14.302;2023-03-01T15:41:32;100334.38;;;5.85;41.65
76594;BME280;65482;50.240;14.302;2023-03-01T15:44:26;100330.38;;;5.92;41.85
76594;BME280;65482;50.240;14.302;2023-03-01T15:46:52;100334.16;;;5.88;42.32
76594;BME280;65482;50.240;14.302;2023-03-01T15:49:42;100330.91;;;5.84;41.46
76594;BME280;65482;50.240;14.302;2023-03-01T15:52:32;100329.38;;;5.69;42.28
76594;BME280;65482;50.240;14.302;2023-03-01T15:55:06;100326.47;;;5.61;43.01
76594;BME280;65482;50.240;14.302;2023-03-01T15:57:40;100333.41;;;5.49;42.68
76594;BME280;65482;50.240;14.302;2023-03-01T16:00:13;100330.94;;;5.47;43.28
76594;BME280;65482;50.240;14.302;2023-03-01T16:02:41;100334.28;;;5.49;43.22
76594;BME280;65482;50.240;14.302;2023-03-01T16:05:39;100320.75;;;5.43;43.42
76594;BME280;65482;50.240;14.302;2023-03-01T16:08:39;100324.97;;;5.32;43.25
76594;BME280;65482;50.240;14.302;2023-03-01T16:11:37;100328.13;;;5.25;43.96
76594;BME280;65482;50.240;14.302;2023-03-01T16:17:43;100322.19;;;5.10;44.13
76594;BME280;65482;50.240;14.302;2023-03-01T16:24:01;100326.56;;;4.96;44.74
76594;BME280;65482;50.240;14.302;2023-03-01T16:30:22;100320.94;;;4.90;45.30
76594;BME280;65482;50.240;14.302;2023-03-01T16:32:49;100324.69;;;4.86;45.77
76594;BME280;65482;50.240;14.302;2023-03-01T16:35:25;100321.75;;;4.77;45.65
76594;BME280;65482;50.240;14.302;2023-03-01T16:37:51;100320.41;;;4.72;45.87
76594;BME280;65482;50.240;14.302;2023-03-01T16:40:21;100318.19;;;4.66;46.45
76594;BME280;65482;50.240;14.302;2023-03-01T16:42:48;100315.22;;;4.57;46.63
76594;BME280;65482;50.240;14.302;2023-03-01T16:45:14;100311.69;;;4.46;46.74
76594;BME280;65482;50.240;14.302;2023-03-01T16:47:39;100311.03;;;4.42;47.21
76594;BME280;65482;50.240;14.302;2023-03-01T16:50:06;100305.78;;;4.29;47.38
76594;BME280;65482;50.240;14.302;2023-03-01T16:52:33;100303.88;;;4.18;47.63
76594;BME280;65482;50.240;14.302;2023-03-01T16:54:59;100310.34;;;4.13;47.86
76594;BME280;65482;50.240;14.302;2023-03-01T16:57:25;100318.00;;;4.02;48.33
76594;BME280;65482;50.240;14.302;2023-03-01T16:59:52;100326.44;;;3.92;48.47
76594;BME280;65482;50.240;14.302;2023-03-01T17:02:19;100325.16;;;3.85;48.86
76594;BME280;65482;50.240;14.302;2023-03-01T17:04:52;100330.13;;;3.75;49.18
76594;BME280;65482;50.240;14.302;2023-03-01T17:07:18;100332.09;;;3.57;50.08
76594;BME280;65482;50.240;14.302;2023-03-01T17:09:44;100343.13;;;3.48;50.13
76594;BME280;65482;50.240;14.302;2023-03-01T17:12:14;100342.00;;;3.38;50.66
76594;BME280;65482;50.240;14.302;2023-03-01T17:14:40;100344.44;;;3.27;51.00
76594;BME280;65482;50.240;14.302;2023-03-01T17:17:10;100328.50;;;3.17;51.12
76594;BME280;65482;50.240;14.302;2023-03-01T17:19:37;100326.44;;;3.08;51.06
76594;BME280;65482;50.240;14.302;2023-03-01T17:22:06;100335.69;;;2.99;51.48
76594;BME280;65482;50.240;14.302;2023-03-01T17:24:50;100336.78;;;2.81;52.17
76594;BME280;65482;50.240;14.302;2023-03-01T17:27:57;100340.44;;;2.62;52.42
76594;BME280;65482;50.240;14.302;2023-03-01T17:30:49;100347.69;;;2.57;52.90
76594;BME280;65482;50.240;14.302;2023-03-01T17:33:35;100346.66;;;2.59;52.77
76594;BME280;65482;50.240;14.302;2023-03-01T17:36:29;100351.66;;;2.48;53.56
76594;BME280;65482;50.240;14.302;2023-03-01T17:42:23;100348.94;;;2.19;53.65
76594;BME280;65482;50.240;14.302;2023-03-01T17:45:10;100343.09;;;2.00;55.25
76594;BME280;65482;50.240;14.302;2023-03-01T17:48:19;100358.63;;;1.86;54.81
76594;BME280;65482;50.240;14.302;2023-03-01T17:51:13;100354.69;;;1.78;55.00
76594;BME280;65482;50.240;14.302;2023-03-01T17:53:58;100351.66;;;1.70;55.19
76594;BME280;65482;50.240;14.302;2023-03-01T17:56:40;100352.41;;;1.72;55.18
76594;BME280;65482;50.240;14.302;2023-03-01T17:59:20;100348.78;;;1.59;55.91
76594;BME280;65482;50.240;14.302;2023-03-01T18:02:01;100348.53;;;1.48;56.25
76594;BME280;65482;50.240;14.302;2023-03-01T18:04:59;100347.25;;;1.39;56.22
76594;BME280;65482;50.240;14.302;2023-03-01T18:07:50;100344.47;;;1.26;56.74
76594;BME280;65482;50.240;14.302;2023-03-01T18:10:30;100341.25;;;1.21;56.93
76594;BME280;65482;50.240;14.302;2023-03-01T18:13:24;100337.00;;;1.20;57.16
76594;BME280;65482;50.240;14.302;2023-03-01T18:16:18;100339.84;;;1.15;57.48
76594;BME280;65482;50.240;14.302;2023-03-01T18:19:12;100332.16;;;0.96;57.96
76594;BME280;65482;50.240;14.302;2023-03-01T18:22:25;100331.03;;;0.85;58.44
76594;BME280;65482;50.240;14.302;2023-03-01T18:25:38;100325.53;;;0.73;58.54
76594;BME280;65482;50.240;14.302;2023-03-01T18:28:27;100323.09;;;0.70;58.22
76594;BME280;65482;50.240;14.302;2023-03-01T18:31:22;100324.09;;;0.68;58.36
76594;BME280;65482;50.240;14.302;2023-03-01T18:33:57;100324.03;;;0.52;59.00
76594;BME280;65482;50.240;14.302;2023-03-01T18:36:52;100321.56;;;0.49;59.27
76594;BME280;65482;50.240;14.302;2023-03-01T18:39:30;100331.56;;;0.39;58.84
76594;BME280;65482;50.240;14.302;2023-03-01T18:42:07;100330.47;;;0.26;59.48
76594;BME280;65482;50.240;14.302;2023-03-01T18:44:33;100322.75;;;0.07;60.21
76594;BME280;65482;50.240;14.302;2023-03-01T18:47:00;100320.47;;;0.01;60.49
76594;BME280;65482;50.240;14.302;2023-03-01T18:49:26;100330.44;;;-0.09;60.53
76594;BME280;65482;50.240;14.302;2023-03-01T18:51:52;100326.38;;;-0.15;60.73
76594;BME280;65482;50.240;14.302;2023-03-01T18:54:18;100330.84;;;-0.18;60.77
76594;BME280;65482;50.240;14.302;2023-03-01T18:56:44;100325.41;;;-0.31;60.58
76594;BME280;65482;50.240;14.302;2023-03-01T18:59:10;100324.72;;;-0.35;61.20
76594;BME280;65482;50.240;14.302;2023-03-01T19:01:37;100315.53;;;-0.42;60.90
76594;BME280;65482;50.240;14.302;2023-03-01T19:04:03;100329.47;;;-0.45;61.63
76594;BME280;65482;50.240;14.302;2023-03-01T19:06:31;100323.81;;;-0.53;61.39
76594;BME280;65482;50.240;14.302;2023-03-01T19:08:58;100337.59;;;-0.52;61.64
76594;BME280;65482;50.240;14.302;2023-03-01T19:11:24;100334.84;;;-0.68;62.21
76594;BME280;65482;50.240;14.302;2023-03-01T19:13:52;100330.59;;;-0.69;62.06
76594;BME280;65482;50.240;14.302;2023-03-01T19:16:23;100335.97;;;-0.74;62.12
76594;BME280;65482;50.240;14.302;2023-03-01T19:19:01;100335.28;;;-0.77;62.65
76594;BME280;65482;50.240;14.302;2023-03-01T19:21:29;100337.00;;;-0.78;62.37
76594;BME280;65482;50.240;14.302;2023-03-01T19:23:55;100335.41;;;-0.81;62.72
76594;BME280;65482;50.240;14.302;2023-03-01T19:26:23;100341.75;;;-0.88;62.90
76594;BME280;65482;50.240;14.302;2023-03-01T19:28:50;100339.31;;;-0.91;63.31
76594;BME280;65482;50.240;14.302;2023-03-01T19:31:19;100342.53;;;-0.86;63.37
76594;BME280;65482;50.240;14.302;2023-03-01T19:33:57;100335.13;;;-0.93;62.99
76594;BME280;65482;50.240;14.302;2023-03-01T19:36:56;100340.69;;;-0.63;62.34
76594;BME280;65482;50.240;14.302;2023-03-01T19:39:45;100351.88;;;-0.82;62.65
76594;BME280;65482;50.240;14.302;2023-03-01T19:42:24;100353.81;;;-0.87;62.49
76594;BME280;65482;50.240;14.302;2023-03-01T19:45:05;100363.47;;;-0.90;62.75
76594;BME280;65482;50.240;14.302;2023-03-01T19:50:47;100345.03;;;-1.03;64.20
76594;BME280;65482;50.240;14.302;2023-03-01T19:53:47;100350.53;;;-1.11;64.24
76594;BME280;65482;50.240;14.302;2023-03-01T19:56:24;100343.50;;;-1.07;63.75
76594;BME280;65482;50.240;14.302;2023-03-01T19:59:20;100345.81;;;-1.22;64.60
76594;BME280;65482;50.240;14.302;2023-03-01T20:02:15;100348.78;;;-1.31;64.51
76594;BME280;65482;50.240;14.302;2023-03-01T20:05:16;100355.91;;;-1.36;64.38
76594;BME280;65482;50.240;14.302;2023-03-01T20:08:00;100348.03;;;-1.33;64.37
76594;BME280;65482;50.240;14.302;2023-03-01T20:10:43;100351.44;;;-1.32;64.23
76594;BME280;65482;50.240;14.302;2023-03-01T20:13:27;100353.31;;;-1.36;64.67